sensor_id;sensor_type;location;lat;lon;timestamp;pressure;altitude;pressure_sealevel;temperature;humidity
29903;BME280;30288;50.514;9.678;2023-01-30T00:00:33;99122.59;;;-1.27;100.00
29903;BME280;30288;50.514;9.678;2023-01-30T00:02:38;99134.09;;;-1.29;100.00
29903;BME280;30288;50.514;9.678;2023-01-30T00:04:43;99135.75;;;-1.28;100.00
29903;BME280;30288;50.514;9.678;2023-01-30T00:06:48;99145.63;;;-1.28;100.00
29903;BME280;30288;50.514;9.678;2023-01-30T00:08:53;99149.81;;;-1.25;100.00
29903;BME280;30288;50.514;9.678;2023-01-30T00:11:03;99140.63;;;-1.31;100.00
29903;BME280;30288;50.514;9.678;2023-01-30T00:13:12;99141.47;;;-1.30;100.00
29903;BME280;30288;50.514;9.678;2023-01-30T00:15:18;99146.28;;;-1.35;100.00
29903;BME280;30288;50.514;9.678;2023-01-30T00:17:22;99130.75;;;-1.31;100.00
29903;BME280;30288;50.514;9.678;2023-01-30T00:19:29;99109.22;;;-1.35;100.00
29903;BME280;30288;50.514;9.678;2023-01-30T00:21:33;99092.78;;;-1.33;100.00
29903;BME280;30288;50.514;9.678;2023-01-30T00:23:39;99074.66;;;-1.35;100.00
29903;BME280;30288;50.514;9.678;2023-01-30T00:25:44;99072.97;;;-1.36;100.00
29903;BME280;30288;50.514;9.678;2023-01-30T00:27:50;99067.19;;;-1.38;100.00
29903;BME280;30288;50.514;9.678;2023-01-30T00:29:59;99059.75;;;-1.38;100.00
29903;BME280;30288;50.514;9.678;2023-01-30T00:32:05;99023.50;;;-1.39;100.00
29903;BME280;30288;50.514;9.678;2023-01-30T00:34:10;99004.44;;;-1.45;100.00
29903;BME280;30288;50.514;9.678;2023-01-30T00:36:15;99008.47;;;-1.48;100.00
29903;BME280;30288;50.514;9.678;2023-01-30T00:38:21;99031.56;;;-1.46;100.00
29903;BME280;30288;50.514;9.678;2023-01-30T00:40:28;99030.72;;;-1.47;100.00
29903;BME280;30288;50.514;9.678;2023-01-30T00:42:39;99017.69;;;-1.41;100.00
29903;BME280;30288;50.514;9.678;2023-01-30T00:44:59;99011.13;;;-1.41;100.00
29903;BME280;30288;50.514;9.678;2023-01-30T00:47:19;99019.47;;;-1.36;100.00
29903;BME280;30288;50.514;9.678;2023-01-30T00:49:27;99026.84;;;-1.37;100.00
29903;BME280;30288;50.514;9.678;2023-01-30T00:51:33;99029.41;;;-1.33;100.00
29903;BME280;30288;50.514;9.678;2023-01-30T00:53:38;99014.69;;;-1.29;100.00
29903;BME280;30288;50.514;9.678;2023-01-30T00:55:43;99020.38;;;-1.32;100.00
29903;BME280;30288;50.514;9.678;2023-01-30T00:57:49;99012.22;;;-1.28;100.00
29903;BME280;30288;50.514;9.678;2023-01-30T00:59:54;99004.06;;;-1.25;100.00
29903;BME280;30288;50.514;9.678;2023-01-30T01:02:02;98992.59;;;-1.22;100.00
29903;BME280;30288;50.514;9.678;2023-01-30T01:04:08;98976.09;;;-1.23;100.00
29903;BME280;30288;50.514;9.678;2023-01-30T01:06:15;98991.88;;;-1.18;100.00
29903;BME280;30288;50.514;9.678;2023-01-30T01:08:19;98993.50;;;-1.18;100.00
29903;BME280;30288;50.514;9.678;2023-01-30T01:10:25;99004.22;;;-1.18;100.00
29903;BME280;30288;50.514;9.678;2023-01-30T01:12:31;99012.47;;;-1.19;100.00
29903;BME280;30288;50.514;9.678;2023-01-30T01:14:36;99014.19;;;-1.15;100.00
29903;BME280;30288;50.514;9.678;2023-01-30T01:16:42;99010.91;;;-1.14;100.00
29903;BME280;30288;50.514;9.678;2023-01-30T01:18:50;99016.72;;;-1.12;100.00
29903;BME280;30288;50.514;9.678;2023-01-30T01:20:55;99006.91;;;-1.09;100.00
29903;BME280;30288;50.514;9.678;2023-01-30T01:23:01;98988.06;;;-1.04;100.00
29903;BME280;30288;50.514;9.678;2023-01-30T01:25:07;98997.91;;;-1.07;100.00
29903;BME280;30288;50.514;9.678;2023-01-30T01:27:13;98968.31;;;-1.04;100.00
29903;BME280;30288;50.514;9.678;2023-01-30T01:29:20;98973.19;;;-1.07;100.00
29903;BME280;30288;50.514;9.678;2023-01-30T01:31:25;98991.44;;;-1.02;100.00
29903;BME280;30288;50.514;9.678;2023-01-30T01:33:30;98979.00;;;-1.05;100.00
29903;BME280;30288;50.514;9.678;2023-01-30T01:35:42;98984.81;;;-1.03;100.00
29903;BME280;30288;50.514;9.678;2023-01-30T01:37:52;98984.94;;;-0.97;100.00
29903;BME280;30288;50.514;9.678;2023-01-30T01:39:57;98993.94;;;-1.00;100.00
29903;BME280;30288;50.514;9.678;2023-01-30T01:42:15;99001.38;;;-0.99;100.00
29903;BME280;30288;50.514;9.678;2023-01-30T01:44:24;99002.16;;;-1.01;100.00
29903;BME280;30288;50.514;9.678;2023-01-30T01:46:33;99008.88;;;-0.96;100.00
29903;BME280;30288;50.514;9.678;2023-01-30T01:48:44;99000.72;;;-0.92;100.00
29903;BME280;30288;50.514;9.678;2023-01-30T01:50:57;98978.53;;;-0.89;100.00
29903;BME280;30288;50.514;9.678;2023-01-30T01:53:04;98980.16;;;-0.91;100.00
29903;BME280;30288;50.514;9.678;2023-01-30T01:55:10;98962.00;;;-0.90;100.00
29903;BME280;30288;50.514;9.678;2023-01-30T01:57:19;98967.09;;;-0.83;100.00
29903;BME280;30288;50.514;9.678;2023-01-30T01:59:32;98959.63;;;-0.86;100.00
29903;BME280;30288;50.514;9.678;2023-01-30T02:01:38;98947.31;;;-0.83;100.00
29903;BME280;30288;50.514;9.678;2023-01-30T02:03:49;98941.56;;;-0.82;100.00
29903;BME280;30288;50.514;9.678;2023-01-30T02:06:01;98939.94;;;-0.82;100.00
29903;BME280;30288;50.514;9.678;2023-01-30T02:08:10;98933.38;;;-0.80;100.00
29903;BME280;30288;50.514;9.678;2023-01-30T02:10:19;98935.00;;;-0.80;100.00
29903;BME280;30288;50.514;9.678;2023-01-30T02:12:26;98924.31;;;-0.79;100.00
29903;BME280;30288;50.514;9.678;2023-01-30T02:14:33;98927.69;;;-0.77;100.00
29903;BME280;30288;50.514;9.678;2023-01-30T02:16:38;98932.66;;;-0.74;100.00
29903;BME280;30288;50.514;9.678;2023-01-30T02:18:45;98935.09;;;-0.76;100.00
29903;BME280;30288;50.514;9.678;2023-01-30T02:24:30;98937.63;;;-0.74;100.00
29903;BME280;30288;50.514;9.678;2023-01-30T02:27:01;98929.41;;;-0.73;100.00
29903;BME280;30288;50.514;9.678;2023-01-30T02:29:46;98936.06;;;-0.69;100.00
29903;BME280;30288;50.514;9.678;2023-01-30T02:32:06;98935.31;;;-0.67;100.00
29903;BME280;30288;50.514;9.678;2023-01-30T02:34:27;98931.16;;;-0.66;100.00
29903;BME280;30288;50.514;9.678;2023-01-30T02:36:45;98934.47;;;-0.67;100.00
29903;BME280;30288;50.514;9.678;2023-01-30T02:39:03;98931.25;;;-0.63;100.00
29903;BME280;30288;50.514;9.678;2023-01-30T02:41:18;98920.56;;;-0.61;100.00
29903;BME280;30288;50.514;9.678;2023-01-30T02:43:32;98923.22;;;-0.53;100.00
29903;BME280;30288;50.514;9.678;2023-01-30T02:45:45;98910.75;;;-0.56;100.00
29903;BME280;30288;50.514;9.678;2023-01-30T02:48:01;98902.53;;;-0.55;100.00
29903;BME280;30288;50.514;9.678;2023-01-30T02:50:10;98901.78;;;-0.51;100.00
29903;BME280;30288;50.514;9.678;2023-01-30T02:52:18;98901.78;;;-0.51;100.00
29903;BME280;30288;50.514;9.678;2023-01-30T02:54:24;98916.63;;;-0.51;100.00
29903;BME280;30288;50.514;9.678;2023-01-30T02:56:29;98910.09;;;-0.49;100.00
29903;BME280;30288;50.514;9.678;2023-01-30T02:58:48;98892.03;;;-0.45;100.00
29903;BME280;30288;50.514;9.678;2023-01-30T03:01:25;98896.94;;;-0.48;100.00
29903;BME280;30288;50.514;9.678;2023-01-30T03:04:00;98887.06;;;-0.45;100.00
29903;BME280;30288;50.514;9.678;2023-01-30T03:06:19;98888.75;;;-0.44;100.00
29903;BME280;30288;50.514;9.678;2023-01-30T03:08:36;98885.53;;;-0.40;100.00
29903;BME280;30288;50.514;9.678;2023-01-30T03:10:54;98892.22;;;-0.33;100.00
29903;BME280;30288;50.514;9.678;2023-01-30T03:13:12;98877.34;;;-0.36;100.00
29903;BME280;30288;50.514;9.678;2023-01-30T03:15:27;98888.06;;;-0.35;100.00
29903;BME280;30288;50.514;9.678;2023-01-30T03:17:34;98875.78;;;-0.31;100.00
29903;BME280;30288;50.514;9.678;2023-01-30T03:19:43;98872.50;;;-0.30;100.00
29903;BME280;30288;50.514;9.678;2023-01-30T03:21:50;98860.97;;;-0.28;100.00
29903;BME280;30288;50.514;9.678;2023-01-30T03:23:55;98863.53;;;-0.23;100.00
29903;BME280;30288;50.514;9.678;2023-01-30T03:26:02;98860.28;;;-0.21;100.00
29903;BME280;30288;50.514;9.678;2023-01-30T03:28:09;98863.56;;;-0.22;100.00
29903;BME280;30288;50.514;9.678;2023-01-30T03:30:15;98857.00;;;-0.20;100.00
29903;BME280;30288;50.514;9.678;2023-01-30T03:32:22;98844.63;;;-0.20;100.00
29903;BME280;30288;50.514;9.678;2023-01-30T03:34:27;98840.50;;;-0.21;100.00
29903;BME280;30288;50.514;9.678;2023-01-30T03:36:36;98834.78;;;-0.17;100.00
29903;BME280;30288;50.514;9.678;2023-01-30T03:38:42;98823.28;;;-0.15;100.00
29903;BME280;30288;50.514;9.678;2023-01-30T03:40:47;98812.47;;;-0.18;100.00
29903;BME280;30288;50.514;9.678;2023-01-30T03:42:53;98812.50;;;-0.17;100.00
29903;BME280;30288;50.514;9.678;2023-01-30T03:44:58;98821.53;;;-0.19;100.00
29903;BME280;30288;50.514;9.678;2023-01-30T03:47:03;98798.47;;;-0.18;100.00
29903;BME280;30288;50.514;9.678;2023-01-30T03:49:08;98804.22;;;-0.19;100.00
29903;BME280;30288;50.514;9.678;2023-01-30T03:51:14;98797.69;;;-0.15;100.00
29903;BME280;30288;50.514;9.678;2023-01-30T03:53:21;98792.75;;;-0.15;100.00
29903;BME280;30288;50.514;9.678;2023-01-30T03:55:28;98793.53;;;-0.16;100.00
29903;BME280;30288;50.514;9.678;2023-01-30T03:57:34;98791.94;;;-0.13;100.00
29903;BME280;30288;50.514;9.678;2023-01-30T03:59:39;98793.63;;;-0.12;100.00
29903;BME280;30288;50.514;9.678;2023-01-30T04:01:47;98778.75;;;-0.12;100.00
29903;BME280;30288;50.514;9.678;2023-01-30T04:03:53;98786.97;;;-0.16;100.00
29903;BME280;30288;50.514;9.678;2023-01-30T04:05:59;98799.38;;;-0.13;100.00
29903;BME280;30288;50.514;9.678;2023-01-30T04:08:05;98789.44;;;-0.16;100.00
29903;BME280;30288;50.514;9.678;2023-01-30T04:10:14;98768.81;;;-0.15;100.00
29903;BME280;30288;50.514;9.678;2023-01-30T04:12:21;98777.09;;;-0.13;100.00
29903;BME280;30288;50.514;9.678;2023-01-30T04:14:30;98761.44;;;-0.12;100.00
29903;BME280;30288;50.514;9.678;2023-01-30T04:16:51;98770.47;;;-0.14;100.00
29903;BME280;30288;50.514;9.678;2023-01-30T04:19:20;98763.88;;;-0.15;100.00
29903;BME280;30288;50.514;9.678;2023-01-30T04:21:25;98760.66;;;-0.08;100.00
29903;BME280;30288;50.514;9.678;2023-01-30T04:23:30;98756.56;;;-0.07;100.00
29903;BME280;30288;50.514;9.678;2023-01-30T04:25:40;98767.25;;;-0.10;100.00
29903;BME280;30288;50.514;9.678;2023-01-30T04:27:45;98754.03;;;-0.09;100.00
29903;BME280;30288;50.514;9.678;2023-01-30T04:29:53;98753.28;;;-0.06;100.00
29903;BME280;30288;50.514;9.678;2023-01-30T04:31:58;98749.34;;;0.10;100.00
29903;BME280;30288;50.514;9.678;2023-01-30T04:34:08;98748.53;;;0.09;100.00
29903;BME280;30288;50.514;9.678;2023-01-30T04:36:13;98724.56;;;0.07;100.00
29903;BME280;30288;50.514;9.678;2023-01-30T04:38:20;98727.91;;;0.09;100.00
29903;BME280;30288;50.514;9.678;2023-01-30T04:40:26;98729.50;;;0.07;100.00
29903;BME280;30288;50.514;9.678;2023-01-30T04:42:34;98723.78;;;0.11;100.00
29903;BME280;30288;50.514;9.678;2023-01-30T04:44:57;98729.50;;;0.07;100.00
29903;BME280;30288;50.514;9.678;2023-01-30T04:47:03;98730.31;;;0.04;100.00
29903;BME280;30288;50.514;9.678;2023-01-30T04:49:09;98740.19;;;0.03;100.00
29903;BME280;30288;50.514;9.678;2023-01-30T04:51:14;98714.66;;;0.07;100.00
29903;BME280;30288;50.514;9.678;2023-01-30T04:53:22;98725.44;;;0.09;100.00
29903;BME280;30288;50.514;9.678;2023-01-30T04:55:27;98720.47;;;0.10;100.00
29903;BME280;30288;50.514;9.678;2023-01-30T04:57:35;98731.28;;;0.14;100.00
29903;BME280;30288;50.514;9.678;2023-01-30T04:59:40;98728.78;;;0.12;100.00
29903;BME280;30288;50.514;9.678;2023-01-30T05:01:50;98715.53;;;0.10;100.00
29903;BME280;30288;50.514;9.678;2023-01-30T05:03:56;98709.81;;;0.16;100.00
29903;BME280;30288;50.514;9.678;2023-01-30T05:06:01;98701.56;;;0.14;100.00
29903;BME280;30288;50.514;9.678;2023-01-30T05:08:07;98704.06;;;0.17;100.00
29903;BME280;30288;50.514;9.678;2023-01-30T05:10:11;98694.19;;;0.18;100.00
29903;BME280;30288;50.514;9.678;2023-01-30T05:12:16;98688.47;;;0.24;100.00
29903;BME280;30288;50.514;9.678;2023-01-30T05:14:27;98681.13;;;0.28;100.00
29903;BME280;30288;50.514;9.678;2023-01-30T05:16:33;98681.97;;;0.32;100.00
29903;BME280;30288;50.514;9.678;2023-01-30T05:18:39;98672.91;;;0.34;100.00
29903;BME280;30288;50.514;9.678;2023-01-30T05:20:44;98681.97;;;0.32;100.00
29903;BME280;30288;50.514;9.678;2023-01-30T05:22:49;98669.59;;;0.33;100.00
29903;BME280;30288;50.514;9.678;2023-01-30T05:24:54;98678.72;;;0.36;100.00
29903;BME280;30288;50.514;9.678;2023-01-30T05:26:59;98664.69;;;0.36;100.00
29903;BME280;30288;50.514;9.678;2023-01-30T05:29:04;98646.53;;;0.37;100.00
29903;BME280;30288;50.514;9.678;2023-01-30T05:31:13;98655.63;;;0.40;100.00
29903;BME280;30288;50.514;9.678;2023-01-30T05:33:18;98647.38;;;0.38;100.00
29903;BME280;30288;50.514;9.678;2023-01-30T05:35:24;98652.38;;;0.44;100.00
29903;BME280;30288;50.514;9.678;2023-01-30T05:37:28;98637.50;;;0.41;100.00
29903;BME280;30288;50.514;9.678;2023-01-30T05:39:34;98640.78;;;0.43;100.00
29903;BME280;30288;50.514;9.678;2023-01-30T05:41:40;98635.81;;;0.40;100.00
29903;BME280;30288;50.514;9.678;2023-01-30T05:43:48;98646.56;;;0.40;100.00
29903;BME280;30288;50.514;9.678;2023-01-30T05:45:55;98639.13;;;0.37;100.00
29903;BME280;30288;50.514;9.678;2023-01-30T05:48:03;98634.13;;;0.36;100.00
29903;BME280;30288;50.514;9.678;2023-01-30T05:50:10;98620.94;;;0.37;100.00
29903;BME280;30288;50.514;9.678;2023-01-30T05:52:15;98619.28;;;0.36;100.00
29903;BME280;30288;50.514;9.678;2023-01-30T05:54:20;98621.72;;;0.33;100.00
29903;BME280;30288;50.514;9.678;2023-01-30T05:56:25;98614.28;;;0.33;100.00
29903;BME280;30288;50.514;9.678;2023-01-30T05:58:34;98617.53;;;0.29;100.00
29903;BME280;30288;50.514;9.678;2023-01-30T06:00:39;98611.81;;;0.33;100.00
29903;BME280;30288;50.514;9.678;2023-01-30T06:02:44;98620.88;;;0.31;100.00
29903;BME280;30288;50.514;9.678;2023-01-30T06:04:52;98617.59;;;0.35;100.00
29903;BME280;30288;50.514;9.678;2023-01-30T06:06:57;98613.50;;;0.37;100.00
29903;BME280;30288;50.514;9.678;2023-01-30T06:09:02;98629.19;;;0.39;100.00
29903;BME280;30288;50.514;9.678;2023-01-30T06:11:11;98634.16;;;0.39;100.00
29903;BME280;30288;50.514;9.678;2023-01-30T06:13:16;98623.38;;;0.34;100.00
29903;BME280;30288;50.514;9.678;2023-01-30T06:15:22;98622.63;;;0.38;100.00
29903;BME280;30288;50.514;9.678;2023-01-30T06:17:27;98642.47;;;0.44;100.00
29903;BME280;30288;50.514;9.678;2023-01-30T06:19:32;98639.19;;;0.45;100.00
29903;BME280;30288;50.514;9.678;2023-01-30T06:21:40;98634.25;;;0.47;100.00
29903;BME280;30288;50.514;9.678;2023-01-30T06:23:45;98642.53;;;0.50;100.00
29903;BME280;30288;50.514;9.678;2023-01-30T06:25:51;98639.25;;;0.53;100.00
29903;BME280;30288;50.514;9.678;2023-01-30T06:27:56;98634.31;;;0.51;100.00
29903;BME280;30288;50.514;9.678;2023-01-30T06:30:03;98637.59;;;0.53;100.00
29903;BME280;30288;50.514;9.678;2023-01-30T06:32:08;98628.53;;;0.52;100.00
29903;BME280;30288;50.514;9.678;2023-01-30T06:34:13;98626.84;;;0.53;100.00
29903;BME280;30288;50.514;9.678;2023-01-30T06:36:19;98639.28;;;0.54;100.00
29903;BME280;30288;50.514;9.678;2023-01-30T06:38:30;98646.72;;;0.56;100.00
29903;BME280;30288;50.514;9.678;2023-01-30T06:40:35;98628.56;;;0.55;100.00
29903;BME280;30288;50.514;9.678;2023-01-30T06:42:44;98629.38;;;0.57;100.00
29903;BME280;30288;50.514;9.678;2023-01-30T06:44:49;98662.47;;;0.59;100.00
29903;BME280;30288;50.514;9.678;2023-01-30T06:46:54;98657.47;;;0.56;100.00
29903;BME280;30288;50.514;9.678;2023-01-30T06:48:59;98668.22;;;0.57;100.00
29903;BME280;30288;50.514;9.678;2023-01-30T06:51:05;98670.69;;;0.57;100.00
29903;BME280;30288;50.514;9.678;2023-01-30T06:53:10;98665.75;;;0.58;100.00
29903;BME280;30288;50.514;9.678;2023-01-30T06:55:19;98669.88;;;0.59;100.00
29903;BME280;30288;50.514;9.678;2023-01-30T06:57:25;98662.44;;;0.56;100.00
29903;BME280;30288;50.514;9.678;2023-01-30T06:59:29;98662.47;;;0.62;100.00
29903;BME280;30288;50.514;9.678;2023-01-30T07:01:34;98659.97;;;0.59;100.00
29903;BME280;30288;50.514;9.678;2023-01-30T07:03:42;98665.75;;;0.58;100.00
29903;BME280;30288;50.514;9.678;2023-01-30T07:05:48;98670.75;;;0.61;100.00
29903;BME280;30288;50.514;9.678;2023-01-30T07:07:53;98670.69;;;0.58;100.00
29903;BME280;30288;50.514;9.678;2023-01-30T07:09:58;98659.91;;;0.53;100.00
29903;BME280;30288;50.514;9.678;2023-01-30T07:12:12;98664.03;;;0.51;100.00
29903;BME280;30288;50.514;9.678;2023-01-30T07:14:18;98664.03;;;0.51;100.00
29903;BME280;30288;50.514;9.678;2023-01-30T07:16:23;98678.91;;;0.54;100.00
29903;BME280;30288;50.514;9.678;2023-01-30T07:18:30;98678.91;;;0.51;100.00
29903;BME280;30288;50.514;9.678;2023-01-30T07:20:35;98666.50;;;0.53;100.00
29903;BME280;30288;50.514;9.678;2023-01-30T07:22:41;98651.66;;;0.54;100.00
29903;BME280;30288;50.514;9.678;2023-01-30T07:24:46;98647.50;;;0.53;100.00
29903;BME280;30288;50.514;9.678;2023-01-30T07:26:51;98651.66;;;0.54;100.00
29903;BME280;30288;50.514;9.678;2023-01-30T07:29:00;98649.19;;;0.54;100.00
29903;BME280;30288;50.514;9.678;2023-01-30T07:31:05;98644.22;;;0.51;100.00
29903;BME280;30288;50.514;9.678;2023-01-30T07:33:11;98645.88;;;0.54;100.00
29903;BME280;30288;50.514;9.678;2023-01-30T07:35:16;98649.19;;;0.54;100.00
29903;BME280;30288;50.514;9.678;2023-01-30T07:37:22;98645.13;;;0.61;100.00
29903;BME280;30288;50.514;9.678;2023-01-30T07:39:27;98660.78;;;0.58;100.00
29903;BME280;30288;50.514;9.678;2023-01-30T07:41:32;98653.41;;;0.64;100.00
29903;BME280;30288;50.514;9.678;2023-01-30T07:43:37;98655.91;;;0.64;100.00
29903;BME280;30288;50.514;9.678;2023-01-30T07:45:47;98645.16;;;0.67;100.00
29903;BME280;30288;50.514;9.678;2023-01-30T07:47:53;98637.78;;;0.71;100.00
29903;BME280;30288;50.514;9.678;2023-01-30T07:49:58;98654.31;;;0.69;100.00
29903;BME280;30288;50.514;9.678;2023-01-30T07:52:03;98626.25;;;0.73;100.00
29903;BME280;30288;50.514;9.678;2023-01-30T07:54:09;98639.50;;;0.75;100.00
29903;BME280;30288;50.514;9.678;2023-01-30T07:56:14;98616.34;;;0.76;100.00
29903;BME280;30288;50.514;9.678;2023-01-30T07:58:21;98646.94;;;0.77;100.00
29903;BME280;30288;50.514;9.678;2023-01-30T08:00:26;98641.13;;;0.76;100.00
29903;BME280;30288;50.514;9.678;2023-01-30T08:02:34;98632.88;;;0.77;100.00
29903;BME280;30288;50.514;9.678;2023-01-30T08:04:39;98636.19;;;0.76;100.00
29903;BME280;30288;50.514;9.678;2023-01-30T08:06:46;98627.94;;;0.77;100.00
29903;BME280;30288;50.514;9.678;2023-01-30T08:08:51;98632.09;;;0.78;100.00
29903;BME280;30288;50.514;9.678;2023-01-30T08:10:56;98613.13;;;0.80;100.00
29903;BME280;30288;50.514;9.678;2023-01-30T08:13:01;98607.31;;;0.81;100.00
29903;BME280;30288;50.514;9.678;2023-01-30T08:15:07;98619.72;;;0.81;100.00
29903;BME280;30288;50.514;9.678;2023-01-30T08:17:13;98606.50;;;0.82;100.00
29903;BME280;30288;50.514;9.678;2023-01-30T08:19:20;98619.78;;;0.87;100.00
29903;BME280;30288;50.514;9.678;2023-01-30T08:21:25;98616.50;;;0.92;100.00
29903;BME280;30288;50.514;9.678;2023-01-30T08:23:31;98611.59;;;0.95;100.00
29903;BME280;30288;50.514;9.678;2023-01-30T08:25:36;98619.81;;;0.94;100.00
29903;BME280;30288;50.514;9.678;2023-01-30T08:27:42;98617.34;;;0.95;100.00
29903;BME280;30288;50.514;9.678;2023-01-30T08:29:47;98617.41;;;1.00;100.00
29903;BME280;30288;50.514;9.678;2023-01-30T08:31:56;98633.09;;;1.02;100.00
29903;BME280;30288;50.514;9.678;2023-01-30T08:34:01;98622.38;;;1.03;100.00
29903;BME280;30288;50.514;9.678;2023-01-30T08:36:09;98626.53;;;1.07;100.00
29903;BME280;30288;50.514;9.678;2023-01-30T08:38:15;98614.97;;;1.06;100.00
29903;BME280;30288;50.514;9.678;2023-01-30T08:40:20;98629.81;;;1.03;100.00
29903;BME280;30288;50.514;9.678;2023-01-30T08:42:25;98622.41;;;1.07;100.00
29903;BME280;30288;50.514;9.678;2023-01-30T08:44:30;98620.78;;;1.11;100.00
29903;BME280;30288;50.514;9.678;2023-01-30T08:46:36;98634.81;;;1.10;100.00
29903;BME280;30288;50.514;9.678;2023-01-30T08:48:42;98609.22;;;1.14;100.00
29903;BME280;30288;50.514;9.678;2023-01-30T08:50:51;98613.44;;;1.23;100.00
29903;BME280;30288;50.514;9.678;2023-01-30T08:53:03;98606.88;;;1.31;100.00
29903;BME280;30288;50.514;9.678;2023-01-30T08:55:10;98625.06;;;1.30;100.00
29903;BME280;30288;50.514;9.678;2023-01-30T08:57:15;98618.41;;;1.26;100.00
29903;BME280;30288;50.514;9.678;2023-01-30T08:59:20;98598.63;;;1.35;100.00
29903;BME280;30288;50.514;9.678;2023-01-30T09:01:25;98607.72;;;1.31;100.00
29903;BME280;30288;50.514;9.678;2023-01-30T09:03:31;98615.19;;;1.36;100.00
29903;BME280;30288;50.514;9.678;2023-01-30T09:05:36;98598.66;;;1.38;100.00
29903;BME280;30288;50.514;9.678;2023-01-30T09:07:41;98615.19;;;1.36;100.00
29903;BME280;30288;50.514;9.678;2023-01-30T09:09:48;98617.69;;;1.38;100.00
29903;BME280;30288;50.514;9.678;2023-01-30T09:11:54;98613.53;;;1.35;100.00
29903;BME280;30288;50.514;9.678;2023-01-30T09:13:59;98601.97;;;1.40;100.00
29903;BME280;30288;50.514;9.678;2023-01-30T09:16:06;98613.56;;;1.44;100.00
29903;BME280;30288;50.514;9.678;2023-01-30T09:18:11;98608.59;;;1.41;100.00
29903;BME280;30288;50.514;9.678;2023-01-30T09:20:22;98602.81;;;1.38;100.00
29903;BME280;30288;50.514;9.678;2023-01-30T09:22:27;98601.97;;;1.37;100.00
29903;BME280;30288;50.514;9.678;2023-01-30T09:24:33;98616.06;;;1.41;100.00
29903;BME280;30288;50.514;9.678;2023-01-30T09:26:40;98610.28;;;1.48;100.00
29903;BME280;30288;50.514;9.678;2023-01-30T09:28:46;98607.81;;;1.50;100.00
29903;BME280;30288;50.514;9.678;2023-01-30T09:30:51;98602.88;;;1.51;100.00
29903;BME280;30288;50.514;9.678;2023-01-30T09:32:57;98598.75;;;1.58;100.00
29903;BME280;30288;50.514;9.678;2023-01-30T09:35:03;98603.69;;;1.50;100.00
29903;BME280;30288;50.514;9.678;2023-01-30T09:37:09;98604.53;;;1.52;100.00
29903;BME280;30288;50.514;9.678;2023-01-30T09:39:15;98609.53;;;1.55;100.00
29903;BME280;30288;50.514;9.678;2023-01-30T09:41:43;98602.91;;;1.59;100.00
29903;BME280;30288;50.514;9.678;2023-01-30T09:44:16;98589.66;;;1.58;100.00
29903;BME280;30288;50.514;9.678;2023-01-30T09:46:41;98596.31;;;1.59;100.00
29903;BME280;30288;50.514;9.678;2023-01-30T09:48:56;98595.50;;;1.63;100.00
29903;BME280;30288;50.514;9.678;2023-01-30T09:51:17;98594.69;;;1.66;100.00
29903;BME280;30288;50.514;9.678;2023-01-30T09:53:32;98588.91;;;1.65;100.00
29903;BME280;30288;50.514;9.678;2023-01-30T09:55:40;98588.09;;;1.77;100.00
29903;BME280;30288;50.514;9.678;2023-01-30T09:57:51;98582.34;;;1.86;100.00
29903;BME280;30288;50.514;9.678;2023-01-30T10:00:01;98587.38;;;1.98;100.00
29903;BME280;30288;50.514;9.678;2023-01-30T10:02:40;98575.75;;;1.91;100.00
29903;BME280;30288;50.514;9.678;2023-01-30T10:04:52;98582.41;;;2.01;100.00
29903;BME280;30288;50.514;9.678;2023-01-30T10:07:14;98595.75;;;2.18;100.00
29903;BME280;30288;50.514;9.678;2023-01-30T10:09:36;98584.16;;;2.26;100.00
29903;BME280;30288;50.514;9.678;2023-01-30T10:11:56;98594.97;;;2.42;100.00
29903;BME280;30288;50.514;9.678;2023-01-30T10:14:32;98590.84;;;2.42;100.00
29903;BME280;30288;50.514;9.678;2023-01-30T10:16:51;98580.88;;;2.39;100.00
29903;BME280;30288;50.514;9.678;2023-01-30T10:19:16;98577.56;;;2.52;100.00
29903;BME280;30288;50.514;9.678;2023-01-30T10:21:45;98568.50;;;2.70;100.00
29903;BME280;30288;50.514;9.678;2023-01-30T10:24:13;98561.00;;;2.57;100.00
29903;BME280;30288;50.514;9.678;2023-01-30T10:26:25;98567.63;;;2.52;100.00
29903;BME280;30288;50.514;9.678;2023-01-30T10:28:38;98585.88;;;2.42;100.00
29903;BME280;30288;50.514;9.678;2023-01-30T10:31:01;98585.03;;;2.37;100.00
29903;BME280;30288;50.514;9.678;2023-01-30T10:33:18;98580.06;;;2.49;100.00
29903;BME280;30288;50.514;9.678;2023-01-30T10:35:31;98594.19;;;2.75;100.00
29903;BME280;30288;50.514;9.678;2023-01-30T10:37:45;98587.53;;;3.25;100.00
29903;BME280;30288;50.514;9.678;2023-01-30T10:40:02;98580.88;;;3.33;100.00
29903;BME280;30288;50.514;9.678;2023-01-30T10:42:11;98592.47;;;3.52;100.00
29903;BME280;30288;50.514;9.678;2023-01-30T10:44:22;98590.72;;;3.82;100.00
29903;BME280;30288;50.514;9.678;2023-01-30T10:46:54;98597.28;;;4.04;100.00
29903;BME280;30288;50.514;9.678;2023-01-30T10:49:07;98605.53;;;4.21;100.00
29903;BME280;30288;50.514;9.678;2023-01-30T10:51:31;98610.47;;;4.30;100.00
29903;BME280;30288;50.514;9.678;2023-01-30T10:53:43;98618.91;;;4.02;100.00
29903;BME280;30288;50.514;9.678;2023-01-30T10:55:58;98628.94;;;3.75;100.00
29903;BME280;30288;50.514;9.678;2023-01-30T10:58:11;98623.97;;;3.75;100.00
29903;BME280;30288;50.514;9.678;2023-01-30T11:00:27;98622.28;;;3.71;100.00
29903;BME280;30288;50.514;9.678;2023-01-30T11:02:42;98599.91;;;3.74;100.00
29903;BME280;30288;50.514;9.678;2023-01-30T11:04:58;98575.84;;;3.70;100.00
29903;BME280;30288;50.514;9.678;2023-01-30T11:07:04;98569.16;;;3.78;100.00
29903;BME280;30288;50.514;9.678;2023-01-30T11:09:10;98578.31;;;3.73;100.00
29903;BME280;30288;50.514;9.678;2023-01-30T11:11:24;98570.88;;;3.64;100.00
29903;BME280;30288;50.514;9.678;2023-01-30T11:13:32;98564.28;;;3.50;100.00
29903;BME280;30288;50.514;9.678;2023-01-30T11:15:40;98566.78;;;3.41;100.00
29903;BME280;30288;50.514;9.678;2023-01-30T11:17:53;98555.19;;;3.28;100.00
29903;BME280;30288;50.514;9.678;2023-01-30T11:20:28;98559.34;;;3.17;100.00
29903;BME280;30288;50.514;9.678;2023-01-30T11:22:35;98557.69;;;3.12;100.00